sensor_id;sensor_type;location;lat;lon;timestamp;pressure;altitude;pressure_sealevel;temperature;humidity
48386;BME280;34644;47.964;7.982;2023-01-30T00:00:44;97368.44;;;15.74;60.50
48386;BME280;34644;47.964;7.982;2023-01-30T00:07:45;97358.38;;;15.76;60.48
48386;BME280;34644;47.964;7.982;2023-01-30T00:14:45;97346.41;;;15.73;60.48
48386;BME280;34644;47.964;7.982;2023-01-30T00:21:46;97312.66;;;15.74;60.52
48386;BME280;34644;47.964;7.982;2023-01-30T00:28:46;97295.09;;;15.73;60.41
48386;BME280;34644;47.964;7.982;2023-01-30T00:35:47;97295.59;;;15.70;60.44
48386;BME280;34644;47.964;7.982;2023-01-30T00:42:48;97294.00;;;15.69;60.50
48386;BME280;34644;47.964;7.982;2023-01-30T00:50:07;97291.59;;;15.67;60.47
48386;BME280;34644;47.964;7.982;2023-01-30T00:57:08;97270.34;;;15.67;60.48
48386;BME280;34644;47.964;7.982;2023-01-30T01:04:09;97253.56;;;15.67;60.56
48386;BME280;34644;47.964;7.982;2023-01-30T01:11:09;97248.25;;;15.67;60.56
48386;BME280;34644;47.964;7.982;2023-01-30T01:18:09;97247.69;;;15.65;60.68
48386;BME280;34644;47.964;7.982;2023-01-30T01:25:10;97233.38;;;15.66;60.66
48386;BME280;34644;47.964;7.982;2023-01-30T01:32:13;97285.44;;;15.67;60.55
48386;BME280;34644;47.964;7.982;2023-01-30T01:39:13;97304.28;;;15.65;60.63
48386;BME280;34644;47.964;7.982;2023-01-30T01:46:20;97331.69;;;15.66;60.59
48386;BME280;34644;47.964;7.982;2023-01-30T01:53:25;97357.44;;;15.65;60.75
48386;BME280;34644;47.964;7.982;2023-01-30T02:00:28;97401.81;;;15.65;60.63
48386;BME280;34644;47.964;7.982;2023-01-30T02:07:39;97421.47;;;15.64;60.70
48386;BME280;34644;47.964;7.982;2023-01-30T02:14:43;97419.28;;;15.61;60.73
48386;BME280;34644;47.964;7.982;2023-01-30T02:22:01;97408.91;;;15.59;60.80
48386;BME280;34644;47.964;7.982;2023-01-30T02:36:29;97390.59;;;15.58;60.85
48386;BME280;34644;47.964;7.982;2023-01-30T02:50:45;97357.81;;;15.52;60.83
48386;BME280;34644;47.964;7.982;2023-01-30T02:57:46;97335.44;;;15.48;61.05
48386;BME280;34644;47.964;7.982;2023-01-30T03:04:51;97349.31;;;15.50;60.86
48386;BME280;34644;47.964;7.982;2023-01-30T03:19:02;97342.69;;;15.52;60.88
48386;BME280;34644;47.964;7.982;2023-01-30T03:26:05;97339.78;;;15.54;60.66
48386;BME280;34644;47.964;7.982;2023-01-30T03:33:09;97313.22;;;15.54;60.78
48386;BME280;34644;47.964;7.982;2023-01-30T03:40:13;97323.28;;;15.52;60.76
48386;BME280;34644;47.964;7.982;2023-01-30T03:47:13;97299.63;;;15.50;60.85
48386;BME280;34644;47.964;7.982;2023-01-30T03:54:14;97304.69;;;15.52;60.83
48386;BME280;34644;47.964;7.982;2023-01-30T04:01:14;97286.59;;;15.49;61.02
48386;BME280;34644;47.964;7.982;2023-01-30T04:08:15;97252.06;;;15.49;61.03
48386;BME280;34644;47.964;7.982;2023-01-30T04:15:15;97253.66;;;15.50;60.81
48386;BME280;34644;47.964;7.982;2023-01-30T04:22:24;97279.66;;;15.48;60.69
48386;BME280;34644;47.964;7.982;2023-01-30T04:29:25;97268.97;;;15.43;60.93
48386;BME280;34644;47.964;7.982;2023-01-30T04:36:27;97284.69;;;15.44;61.00
48386;BME280;34644;47.964;7.982;2023-01-30T04:43:29;97289.50;;;15.47;60.93
48386;BME280;34644;47.964;7.982;2023-01-30T04:50:48;97305.81;;;15.56;61.12
48386;BME280;34644;47.964;7.982;2023-01-30T04:57:49;97325.00;;;15.63;60.91
48386;BME280;34644;47.964;7.982;2023-01-30T05:04:49;97334.41;;;15.71;61.04
48386;BME280;34644;47.964;7.982;2023-01-30T05:11:49;97315.84;;;15.76;60.85
48386;BME280;34644;47.964;7.982;2023-01-30T05:18:50;97323.59;;;15.78;61.08
48386;BME280;34644;47.964;7.982;2023-01-30T05:25:50;97288.81;;;15.79;60.86
48386;BME280;34644;47.964;7.982;2023-01-30T05:32:50;97311.13;;;15.78;60.94
48386;BME280;34644;47.964;7.982;2023-01-30T05:39:51;97314.59;;;15.79;60.92
48386;BME280;34644;47.964;7.982;2023-01-30T05:46:51;97320.94;;;15.78;60.99
48386;BME280;34644;47.964;7.982;2023-01-30T05:53:51;97307.66;;;15.78;61.02
48386;BME280;34644;47.964;7.982;2023-01-30T06:00:52;97323.81;;;15.76;61.14
48386;BME280;34644;47.964;7.982;2023-01-30T06:07:52;97305.47;;;15.74;61.00
48386;BME280;34644;47.964;7.982;2023-01-30T06:14:52;97317.41;;;15.72;61.15
48386;BME280;34644;47.964;7.982;2023-01-30T06:21:53;97333.03;;;15.68;61.09
48386;BME280;34644;47.964;7.982;2023-01-30T06:28:53;97328.78;;;15.67;61.37
48386;BME280;34644;47.964;7.982;2023-01-30T06:35:53;97330.06;;;15.65;61.29
48386;BME280;34644;47.964;7.982;2023-01-30T06:42:54;97328.47;;;15.64;61.37
48386;BME280;34644;47.964;7.982;2023-01-30T06:49:54;97315.66;;;15.61;61.37
48386;BME280;34644;47.964;7.982;2023-01-30T06:56:54;97319.66;;;15.58;61.38
48386;BME280;34644;47.964;7.982;2023-01-30T07:03:55;97315.63;;;15.55;61.39
48386;BME280;34644;47.964;7.982;2023-01-30T07:10:55;97295.00;;;15.63;61.30
48386;BME280;34644;47.964;7.982;2023-01-30T07:17:55;97302.81;;;15.74;61.05
48386;BME280;34644;47.964;7.982;2023-01-30T07:24:55;97256.59;;;15.76;60.87
48386;BME280;34644;47.964;7.982;2023-01-30T07:31:56;97258.53;;;15.80;60.92
48386;BME280;34644;47.964;7.982;2023-01-30T07:38:56;97262.78;;;15.81;60.84
48386;BME280;34644;47.964;7.982;2023-01-30T07:45:58;97270.75;;;15.81;60.82
48386;BME280;34644;47.964;7.982;2023-01-30T07:53:01;97271.56;;;15.82;60.91
48386;BME280;34644;47.964;7.982;2023-01-30T08:00:02;97287.75;;;15.80;61.00
48386;BME280;34644;47.964;7.982;2023-01-30T08:07:08;97332.44;;;15.83;60.89
48386;BME280;34644;47.964;7.982;2023-01-30T08:14:09;97336.66;;;15.79;61.08
48386;BME280;34644;47.964;7.982;2023-01-30T08:21:10;97317.50;;;15.77;61.03
48386;BME280;34644;47.964;7.982;2023-01-30T08:28:10;97320.94;;;15.78;60.94
48386;BME280;34644;47.964;7.982;2023-01-30T08:35:10;97303.63;;;15.75;61.13
48386;BME280;34644;47.964;7.982;2023-01-30T08:42:11;97311.13;;;15.78;61.00
48386;BME280;34644;47.964;7.982;2023-01-30T08:49:11;97301.53;;;15.77;61.09
48386;BME280;34644;47.964;7.982;2023-01-30T08:56:11;97324.88;;;15.75;61.13
48386;BME280;34644;47.964;7.982;2023-01-30T09:03:12;97338.69;;;15.72;61.24
48386;BME280;34644;47.964;7.982;2023-01-30T09:10:13;97350.84;;;15.68;61.33
48386;BME280;34644;47.964;7.982;2023-01-30T09:17:13;97350.84;;;15.68;61.32
48386;BME280;34644;47.964;7.982;2023-01-30T09:24:13;97345.22;;;15.64;61.41
48386;BME280;34644;47.964;7.982;2023-01-30T09:31:14;97329.53;;;15.63;61.34
48386;BME280;34644;47.964;7.982;2023-01-30T09:38:14;97321.81;;;15.61;61.44
48386;BME280;34644;47.964;7.982;2023-01-30T09:52:26;97311.91;;;15.56;61.64
48386;BME280;34644;47.964;7.982;2023-01-30T09:59:31;97300.75;;;15.54;61.81
48386;BME280;34644;47.964;7.982;2023-01-30T10:06:35;97309.50;;;15.55;61.68
48386;BME280;34644;47.964;7.982;2023-01-30T10:13:48;97314.53;;;15.51;61.70
48386;BME280;34644;47.964;7.982;2023-01-30T10:28:21;97318.22;;;15.50;61.74
48386;BME280;34644;47.964;7.982;2023-01-30T10:35:26;97275.97;;;15.49;61.82
48386;BME280;34644;47.964;7.982;2023-01-30T10:42:39;97265.59;;;15.47;61.67
48386;BME280;34644;47.964;7.982;2023-01-30T10:49:43;97266.88;;;15.45;61.67
48386;BME280;34644;47.964;7.982;2023-01-30T11:03:54;97238.22;;;15.47;61.52
48386;BME280;34644;47.964;7.982;2023-01-30T11:10:56;97207.94;;;15.48;61.45
48386;BME280;34644;47.964;7.982;2023-01-30T11:18:02;97188.81;;;15.46;61.54
48386;BME280;34644;47.964;7.982;2023-01-30T11:25:05;97188.56;;;15.47;61.43
48386;BME280;34644;47.964;7.982;2023-01-30T11:32:11;97170.13;;;15.63;60.93
48386;BME280;34644;47.964;7.982;2023-01-30T11:46:13;97164.91;;;16.48;59.03
48386;BME280;34644;47.964;7.982;2023-01-30T11:53:17;97138.16;;;16.70;58.46
48386;BME280;34644;47.964;7.982;2023-01-30T12:00:21;97127.00;;;16.83;58.39
48386;BME280;34644;47.964;7.982;2023-01-30T12:07:24;97119.53;;;16.80;58.50
48386;BME280;34644;47.964;7.982;2023-01-30T12:14:36;97129.38;;;16.75;58.67
48386;BME280;34644;47.964;7.982;2023-01-30T12:35:46;97151.34;;;16.50;59.58
48386;BME280;34644;47.964;7.982;2023-01-30T12:50:02;97135.03;;;16.31;60.13
48386;BME280;34644;47.964;7.982;2023-01-30T12:57:11;97137.88;;;16.19;60.25
48386;BME280;34644;47.964;7.982;2023-01-30T13:11:24;97107.47;;;16.04;60.09
48386;BME280;34644;47.964;7.982;2023-01-30T13:25:54;97112.16;;;15.92;60.34
48386;BME280;34644;47.964;7.982;2023-01-30T13:32:59;97102.03;;;15.89;60.29
48386;BME280;34644;47.964;7.982;2023-01-30T13:40:14;97103.38;;;15.86;60.50
48386;BME280;34644;47.964;7.982;2023-01-30T13:47:22;97115.28;;;15.84;60.31
48386;BME280;34644;47.964;7.982;2023-01-30T14:09:19;97128.81;;;15.77;59.94
48386;BME280;34644;47.964;7.982;2023-01-30T14:16:23;97137.25;;;15.74;59.77
48386;BME280;34644;47.964;7.982;2023-01-30T14:23:26;97142.28;;;15.70;59.88
48386;BME280;34644;47.964;7.982;2023-01-30T14:30:35;97134.00;;;15.67;59.43
48386;BME280;34644;47.964;7.982;2023-01-30T14:44:57;97168.50;;;15.62;59.16
48386;BME280;34644;47.964;7.982;2023-01-30T14:51:58;97176.19;;;15.58;58.88
48386;BME280;34644;47.964;7.982;2023-01-30T14:59:00;97182.00;;;15.55;58.58
48386;BME280;34644;47.964;7.982;2023-01-30T15:06:01;97196.56;;;15.52;58.68
48386;BME280;34644;47.964;7.982;2023-01-30T15:34:21;97251.19;;;15.43;59.37
48386;BME280;34644;47.964;7.982;2023-01-30T15:41:21;97275.34;;;15.42;59.69
48386;BME280;34644;47.964;7.982;2023-01-30T15:55:50;97263.06;;;15.35;59.78
48386;BME280;34644;47.964;7.982;2023-01-30T16:02:52;97290.13;;;15.32;59.90
48386;BME280;34644;47.964;7.982;2023-01-30T16:09:53;97298.34;;;15.31;60.00
48386;BME280;34644;47.964;7.982;2023-01-30T16:31:06;97335.81;;;15.34;60.11
48386;BME280;34644;47.964;7.982;2023-01-30T16:38:29;97350.59;;;15.47;60.19
48386;BME280;34644;47.964;7.982;2023-01-30T16:52:34;97363.81;;;15.42;58.12
48386;BME280;34644;47.964;7.982;2023-01-30T16:59:36;97369.94;;;15.26;56.04
48386;BME280;34644;47.964;7.982;2023-01-30T17:06:37;97381.97;;;15.11;55.03
48386;BME280;34644;47.964;7.982;2023-01-30T17:13:39;97379.00;;;15.08;54.34
48386;BME280;34644;47.964;7.982;2023-01-30T17:20:42;97410.22;;;15.00;54.94
48386;BME280;34644;47.964;7.982;2023-01-30T17:27:46;97412.63;;;15.02;54.92
48386;BME280;34644;47.964;7.982;2023-01-30T17:34:47;97413.03;;;14.94;54.56
48386;BME280;34644;47.964;7.982;2023-01-30T17:41:47;97410.53;;;14.87;54.21
48386;BME280;34644;47.964;7.982;2023-01-30T17:48:48;97423.56;;;14.72;53.85
48386;BME280;34644;47.964;7.982;2023-01-30T17:55:49;97433.53;;;14.64;52.92
48386;BME280;34644;47.964;7.982;2023-01-30T18:02:50;97456.81;;;14.62;52.67
48386;BME280;34644;47.964;7.982;2023-01-30T18:09:50;97455.00;;;14.51;52.10
48386;BME280;34644;47.964;7.982;2023-01-30T18:16:53;97449.28;;;14.42;51.79
48386;BME280;34644;47.964;7.982;2023-01-30T18:23:59;97459.19;;;14.47;52.51
48386;BME280;34644;47.964;7.982;2023-01-30T18:30:59;97465.22;;;14.42;52.58
48386;BME280;34644;47.964;7.982;2023-01-30T18:37:59;97467.84;;;14.42;52.72
48386;BME280;34644;47.964;7.982;2023-01-30T18:45:02;97473.16;;;14.42;51.63
48386;BME280;34644;47.964;7.982;2023-01-30T18:52:03;97470.97;;;14.39;51.76
48386;BME280;34644;47.964;7.982;2023-01-30T18:59:04;97471.94;;;14.33;51.42
48386;BME280;34644;47.964;7.982;2023-01-30T19:06:04;97460.41;;;14.27;51.04
48386;BME280;34644;47.964;7.982;2023-01-30T19:13:05;97473.44;;;14.29;51.13
48386;BME280;34644;47.964;7.982;2023-01-30T19:20:24;97484.84;;;14.58;53.22
48386;BME280;34644;47.964;7.982;2023-01-30T19:27:24;97496.72;;;14.68;54.05
48386;BME280;34644;47.964;7.982;2023-01-30T19:34:24;97501.88;;;14.74;54.61
48386;BME280;34644;47.964;7.982;2023-01-30T19:41:26;97514.44;;;14.79;55.33
48386;BME280;34644;47.964;7.982;2023-01-30T19:48:28;97524.44;;;14.89;55.32
48386;BME280;34644;47.964;7.982;2023-01-30T19:55:32;97522.91;;;14.93;55.61
48386;BME280;34644;47.964;7.982;2023-01-30T20:02:33;97532.47;;;14.94;55.79
48386;BME280;34644;47.964;7.982;2023-01-30T20:09:34;97548.47;;;14.99;55.81
48386;BME280;34644;47.964;7.982;2023-01-30T20:16:34;97555.66;;;14.98;56.02
48386;BME280;34644;47.964;7.982;2023-01-30T20:23:35;97558.53;;;14.97;56.08
48386;BME280;34644;47.964;7.982;2023-01-30T20:30:37;97561.66;;;14.94;56.45
48386;BME280;34644;47.964;7.982;2023-01-30T20:37:38;97564.56;;;14.92;56.44
48386;BME280;34644;47.964;7.982;2023-01-30T20:44:38;97577.03;;;14.92;56.77
48386;BME280;34644;47.964;7.982;2023-01-30T20:51:38;97577.03;;;14.92;56.73
48386;BME280;34644;47.964;7.982;2023-01-30T20:58:38;97580.16;;;14.89;56.84
48386;BME280;34644;47.964;7.982;2023-01-30T21:05:39;97591.81;;;14.88;56.72
48386;BME280;34644;47.964;7.982;2023-01-30T21:12:39;97587.56;;;14.87;56.58
48386;BME280;34644;47.964;7.982;2023-01-30T21:19:39;97598.41;;;14.85;56.70
48386;BME280;34644;47.964;7.982;2023-01-30T21:26:41;97605.56;;;14.84;56.76
48386;BME280;34644;47.964;7.982;2023-01-30T21:33:43;97611.91;;;14.83;56.90
48386;BME280;34644;47.964;7.982;2023-01-30T21:40:50;97634.19;;;14.82;57.04
48386;BME280;34644;47.964;7.982;2023-01-30T21:48:09;97636.03;;;14.82;56.99
48386;BME280;34644;47.964;7.982;2023-01-30T21:55:09;97637.31;;;14.79;57.17
48386;BME280;34644;47.964;7.982;2023-01-30T22:02:09;97656.44;;;14.81;57.24
48386;BME280;34644;47.964;7.982;2023-01-30T22:09:11;97656.44;;;14.81;57.30
48386;BME280;34644;47.964;7.982;2023-01-30T22:16:12;97668.13;;;14.80;57.62
48386;BME280;34644;47.964;7.982;2023-01-30T22:23:13;97672.84;;;14.78;57.64
48386;BME280;34644;47.964;7.982;2023-01-30T22:30:13;97674.47;;;14.79;57.82
48386;BME280;34644;47.964;7.982;2023-01-30T22:37:14;97681.38;;;14.80;57.86
48386;BME280;34644;47.964;7.982;2023-01-30T22:44:15;97676.56;;;14.77;58.09
48386;BME280;34644;47.964;7.982;2023-01-30T22:51:20;97689.22;;;14.75;58.18
48386;BME280;34644;47.964;7.982;2023-01-30T22:58:20;97684.75;;;14.76;58.07
48386;BME280;34644;47.964;7.982;2023-01-30T23:05:21;97689.22;;;14.75;58.44
48386;BME280;34644;47.964;7.982;2023-01-30T23:12:21;97685.78;;;14.75;58.44
48386;BME280;34644;47.964;7.982;2023-01-30T23:19:39;97686.84;;;14.74;58.30
48386;BME280;34644;47.964;7.982;2023-01-30T23:26:41;97679.91;;;14.73;58.47
48386;BME280;34644;47.964;7.982;2023-01-30T23:33:41;97673.81;;;14.72;58.59
48386;BME280;34644;47.964;7.982;2023-01-30T23:40:42;97665.00;;;14.72;58.59
48386;BME280;34644;47.964;7.982;2023-01-30T23:47:42;97650.94;;;14.71;58.60
48386;BME280;34644;47.964;7.982;2023-01-30T23:54:42;97655.00;;;14.74;58.43
